createdAt,value
2022-08-22T00:02:56.069Z,1.75
2022-08-22T00:03:15.031Z,3.40
2022-08-22T00:06:15.961Z,3.95
2022-08-22T00:09:19.041Z,3.80
2022-08-22T00:12:32.211Z,3.60
2022-08-22T00:16:04.170Z,3.43
2022-08-22T00:19:02.627Z,3.80
2022-08-22T00:22:05.081Z,4.68
2022-08-22T00:25:04.279Z,4.15
2022-08-22T00:27:56.849Z,4.20
2022-08-22T00:31:10.134Z,4.10
2022-08-22T00:34:25.203Z,3.55
2022-08-22T00:37:25.882Z,3.65
2022-08-22T00:40:40.619Z,3.60
2022-08-22T00:43:46.180Z,3.28
2022-08-22T00:46:44.937Z,3.30
2022-08-22T00:49:55.170Z,3.80
2022-08-22T00:53:04.248Z,2.75
2022-08-22T00:56:10.938Z,3.10
2022-08-22T00:59:18.109Z,3.00
2022-08-22T01:02:13.756Z,3.27
2022-08-22T01:05:11.088Z,2.75
2022-08-22T01:07:58.167Z,2.83
2022-08-22T01:10:55.111Z,2.78
2022-08-22T01:14:03.632Z,2.60
2022-08-22T01:17:11.359Z,2.87
2022-08-22T01:20:37.210Z,2.70
2022-08-22T01:24:01.924Z,2.75
2022-08-22T01:27:14.442Z,3.00
2022-08-22T01:30:13.683Z,2.33
2022-08-22T01:33:06.780Z,3.50
2022-08-22T01:36:01.381Z,2.67
2022-08-22T01:39:13.674Z,2.85
2022-08-22T01:42:38.099Z,2.55
2022-08-22T01:45:49.865Z,2.70
2022-08-22T01:48:51.684Z,3.10
2022-08-22T01:51:50.997Z,3.00
2022-08-22T01:55:10.439Z,3.15
2022-08-22T01:58:01.631Z,3.30
2022-08-22T02:01:03.725Z,3.03
2022-08-22T02:04:03.108Z,3.10
2022-08-22T02:07:02.752Z,2.67
2022-08-22T02:10:10.576Z,3.03
2022-08-22T02:13:23.253Z,3.75
2022-08-22T02:16:40.225Z,2.90
2022-08-22T02:19:38.090Z,3.10
2022-08-22T02:22:30.792Z,3.30
2022-08-22T02:25:25.938Z,3.08
2022-08-22T02:28:19.800Z,3.05
2022-08-22T02:31:16.849Z,3.15
2022-08-22T02:34:20.828Z,3.20
2022-08-22T02:37:29.378Z,3.40
2022-08-22T02:40:34.189Z,3.10
2022-08-22T02:43:30.525Z,3.08
2022-08-22T02:46:32.860Z,2.55
2022-08-22T02:49:43.909Z,2.70
2022-08-22T02:52:59.982Z,3.20
2022-08-22T02:56:06.477Z,3.05
2022-08-22T02:59:16.507Z,3.00
2022-08-22T03:02:27.946Z,2.90
2022-08-22T03:05:17.837Z,3.00
2022-08-22T03:08:17.249Z,3.10
2022-08-22T03:11:41.657Z,3.08
2022-08-22T03:14:39.013Z,2.70
2022-08-22T03:17:33.013Z,2.50
2022-08-22T03:20:40.478Z,2.70
2022-08-22T03:23:51.525Z,2.67
2022-08-22T03:26:50.241Z,2.80
2022-08-22T03:29:47.961Z,2.72
2022-08-22T03:32:50.372Z,2.78
2022-08-22T03:35:46.209Z,2.77
2022-08-22T03:38:33.132Z,2.70
2022-08-22T03:41:23.881Z,3.17
2022-08-22T03:44:33.091Z,2.40
2022-08-22T03:47:50.721Z,2.40
2022-08-22T03:50:56.640Z,2.60
2022-08-22T03:54:05.435Z,2.38
2022-08-22T03:57:06.523Z,2.38
2022-08-22T04:00:31.795Z,2.60
2022-08-22T04:03:56.059Z,2.63
2022-08-22T04:07:28.569Z,2.67
2022-08-22T04:10:40.089Z,2.30
2022-08-22T04:14:03.369Z,3.08
2022-08-22T04:17:12.046Z,2.50
2022-08-22T04:20:01.995Z,2.40
2022-08-22T04:22:58.247Z,2.40
2022-08-22T04:25:51.108Z,2.60
2022-08-22T04:28:43.314Z,2.35
2022-08-22T04:31:35.071Z,2.28
2022-08-22T04:34:41.445Z,2.50
2022-08-22T04:37:28.356Z,2.30
2022-08-22T04:40:24.216Z,2.58
2022-08-22T04:43:19.824Z,3.75
2022-08-22T04:46:37.008Z,2.45
2022-08-22T04:49:43.409Z,2.70
2022-08-22T04:53:16.590Z,2.33
2022-08-22T04:56:07.996Z,2.70
2022-08-22T04:58:55.752Z,2.60
2022-08-22T05:01:28.192Z,3.03
2022-08-22T05:04:01.263Z,2.50
2022-08-22T05:06:32.361Z,2.80
2022-08-22T05:09:04.472Z,3.28
2022-08-22T05:11:34.412Z,3.10
2022-08-22T05:14:05.694Z,2.65
2022-08-22T05:16:40.608Z,3.23
2022-08-22T05:19:34.748Z,3.00
2022-08-22T05:22:02.961Z,3.08
2022-08-22T05:24:37.815Z,3.17
2022-08-22T05:27:14.995Z,3.22
2022-08-22T05:29:44.830Z,3.13
2022-08-22T05:32:21.132Z,3.25
2022-08-22T05:34:51.458Z,3.17
2022-08-22T05:37:24.376Z,2.72
2022-08-22T05:39:56.571Z,2.50
2022-08-22T05:42:28.045Z,3.03
2022-08-22T05:44:55.429Z,2.72
2022-08-22T05:47:38.137Z,3.00
2022-08-22T05:50:14.080Z,2.88
2022-08-22T05:53:06.434Z,3.20
2022-08-22T05:55:46.953Z,3.23
2022-08-22T05:58:19.851Z,3.00
2022-08-22T06:00:52.067Z,2.90
2022-08-22T06:03:27.387Z,3.20
2022-08-22T06:05:59.027Z,3.13
2022-08-22T06:08:31.647Z,3.03
2022-08-22T06:11:05.798Z,2.95
2022-08-22T06:13:41.507Z,3.10
2022-08-22T06:16:23.577Z,2.60
2022-08-22T06:18:51.704Z,2.75
2022-08-22T06:21:18.571Z,3.60
2022-08-22T06:23:50.063Z,3.58
2022-08-22T06:26:21.312Z,2.95
2022-08-22T06:28:55.354Z,2.72
2022-08-22T06:31:37.632Z,2.90
2022-08-22T06:34:08.054Z,3.20
2022-08-22T06:36:38.101Z,2.78
2022-08-22T06:39:21.973Z,3.13
2022-08-22T06:41:59.908Z,2.85
2022-08-22T06:44:32.714Z,2.80
2022-08-22T06:47:03.514Z,2.80
2022-08-22T06:49:34.459Z,3.03
2022-08-22T06:52:06.485Z,2.83
2022-08-22T06:54:37.117Z,3.28
2022-08-22T06:57:06.527Z,2.97
2022-08-22T06:59:38.160Z,2.80
2022-08-22T07:02:27.813Z,3.38
2022-08-22T07:04:54.621Z,2.67
2022-08-22T07:07:25.536Z,2.53
2022-08-22T07:09:55.561Z,2.83
2022-08-22T07:12:27.817Z,2.83
2022-08-22T07:15:00.753Z,2.75
2022-08-22T07:17:32.727Z,2.65
2022-08-22T07:20:23.738Z,2.30
2022-08-22T07:22:54.499Z,4.00
2022-08-22T07:25:21.651Z,3.03
2022-08-22T07:28:00.475Z,2.65
2022-08-22T07:31:00.126Z,3.08
2022-08-22T07:33:33.926Z,2.58
2022-08-22T07:36:06.897Z,2.58
2022-08-22T07:38:47.504Z,2.50
2022-08-22T07:41:22.869Z,2.08
2022-08-22T07:43:57.706Z,2.33
2022-08-22T07:46:46.224Z,1.70
2022-08-22T07:49:23.357Z,2.50
2022-08-22T07:51:56.088Z,1.80
2022-08-22T07:54:28.842Z,1.45
2022-08-22T07:57:00.693Z,1.92
2022-08-22T07:59:30.705Z,2.35
2022-08-22T08:02:00.379Z,2.00
2022-08-22T08:04:31.233Z,2.00
2022-08-22T08:07:00.536Z,1.83
2022-08-22T08:09:33.095Z,1.83
2022-08-22T08:12:02.197Z,2.10
2022-08-22T08:14:29.826Z,1.75
2022-08-22T08:17:22.861Z,1.50
2022-08-22T08:19:50.813Z,1.77
2022-08-22T08:22:22.702Z,2.00
2022-08-22T08:24:50.522Z,1.85
2022-08-22T08:27:41.202Z,1.80
2022-08-22T08:30:18.772Z,1.50
2022-08-22T08:32:57.626Z,1.90
2022-08-22T08:36:02.005Z,2.20
2022-08-22T08:38:53.413Z,1.90
2022-08-22T08:41:40.980Z,1.70
2022-08-22T08:44:28.172Z,2.10
2022-08-22T08:47:16.367Z,1.80
2022-08-22T08:49:50.468Z,1.67
2022-08-22T08:52:42.593Z,2.00
2022-08-22T08:55:24.739Z,1.85
2022-08-22T08:58:06.663Z,1.57
2022-08-22T09:01:14.111Z,1.92
2022-08-22T09:03:44.050Z,1.65
2022-08-22T09:06:42.358Z,2.33
2022-08-22T09:09:14.826Z,2.10
2022-08-22T09:12:12.335Z,1.60
2022-08-22T09:14:53.150Z,1.83
2022-08-22T09:17:39.252Z,1.77
2022-08-22T09:20:26.841Z,1.63
2022-08-22T09:23:15.813Z,2.03
2022-08-22T09:25:50.850Z,1.60
2022-08-22T09:28:29.536Z,1.83
2022-08-22T09:34:25.819Z,1.70
2022-08-22T09:37:13.896Z,2.45
2022-08-22T09:43:10.993Z,1.80
2022-08-22T09:45:42.921Z,1.90
2022-08-22T09:48:18.389Z,1.67
2022-08-22T09:51:31.238Z,1.85
2022-08-22T09:53:53.685Z,1.93
2022-08-22T09:56:43.973Z,1.98
2022-08-22T09:59:24.545Z,1.77
2022-08-22T10:02:01.915Z,2.13
2022-08-22T10:04:57.026Z,2.03
2022-08-22T10:07:37.319Z,1.70
2022-08-22T10:10:23.086Z,1.73
2022-08-22T10:13:10.440Z,1.63
2022-08-22T10:15:37.476Z,2.15
2022-08-22T10:18:07.148Z,1.80
2022-08-22T10:21:08.650Z,1.67
2022-08-22T10:24:25.166Z,1.83
2022-08-22T10:27:07.960Z,2.00
2022-08-22T10:30:13.277Z,2.10
2022-08-22T10:33:08.943Z,1.80
2022-08-22T10:36:05.002Z,1.87
2022-08-22T10:38:46.275Z,1.70
2022-08-22T10:41:36.091Z,1.90
2022-08-22T10:44:03.996Z,1.83
2022-08-22T10:46:37.708Z,2.08
2022-08-22T10:49:30.880Z,1.73
2022-08-22T10:52:15.352Z,1.77
2022-08-22T10:55:13.579Z,1.88
2022-08-22T10:57:53.781Z,1.60
2022-08-22T11:00:59.585Z,2.25
2022-08-22T11:03:44.919Z,2.23
2022-08-22T11:06:36.115Z,2.03
2022-08-22T11:09:05.912Z,1.67
2022-08-22T11:12:02.907Z,1.80
2022-08-22T11:14:44.797Z,1.98
2022-08-22T11:17:46.391Z,1.90
2022-08-22T11:20:48.515Z,1.80
2022-08-22T11:23:39.445Z,1.60
2022-08-22T11:26:35.797Z,2.05
2022-08-22T11:29:15.165Z,1.80
2022-08-22T11:32:19.156Z,2.10
2022-08-22T11:34:57.137Z,2.03
2022-08-22T11:38:05.896Z,1.80
2022-08-22T11:41:25.370Z,1.83
2022-08-22T11:44:01.397Z,1.80
2022-08-22T11:46:40.019Z,1.57
2022-08-22T11:49:44.212Z,1.80
2022-08-22T11:52:25.521Z,2.15
2022-08-22T11:55:33.285Z,1.90
2022-08-22T11:58:28.699Z,1.90
2022-08-22T12:01:17.003Z,1.93
2022-08-22T12:04:09.678Z,1.73
2022-08-22T12:06:48.367Z,2.20
2022-08-22T12:09:23.092Z,2.00
2022-08-22T12:11:55.890Z,2.17
2022-08-22T12:14:46.660Z,1.90
2022-08-22T12:17:55.960Z,2.10
2022-08-22T12:20:36.914Z,2.13
2022-08-22T12:23:50.389Z,2.30
2022-08-22T12:26:24.674Z,2.58
2022-08-22T12:29:20.100Z,2.37
2022-08-22T12:32:34.080Z,2.83
2022-08-22T12:35:27.082Z,2.80
2022-08-22T12:38:27.972Z,2.50
2022-08-22T12:41:35.092Z,2.90
2022-08-22T12:44:26.958Z,3.20
2022-08-22T12:47:09.230Z,2.42
2022-08-22T12:49:52.772Z,3.00
2022-08-22T12:52:41.666Z,2.60
2022-08-22T12:55:38.607Z,2.72
2022-08-22T12:58:33.863Z,2.53
2022-08-22T13:01:06.342Z,3.00
2022-08-22T13:03:45.821Z,2.50
2022-08-22T13:06:33.708Z,2.40
2022-08-22T13:09:10.984Z,2.63
2022-08-22T13:11:40.756Z,2.50
2022-08-22T13:14:09.495Z,2.10
2022-08-22T13:16:52.873Z,2.33
2022-08-22T13:19:23.903Z,3.17
2022-08-22T13:22:07.842Z,2.85
2022-08-22T13:24:52.755Z,2.10
2022-08-22T13:27:36.356Z,2.28
2022-08-22T13:30:12.429Z,2.38
2022-08-22T13:32:54.093Z,2.35
2022-08-22T13:35:44.572Z,2.65
2022-08-22T13:38:23.808Z,2.20
2022-08-22T13:40:55.508Z,2.10
2022-08-22T13:43:32.051Z,2.20
2022-08-22T13:46:03.149Z,2.15
2022-08-22T13:48:49.923Z,2.75
2022-08-22T13:51:25.483Z,2.17
2022-08-22T13:54:15.225Z,1.85
2022-08-22T13:56:56.150Z,2.33
2022-08-22T13:59:51.098Z,2.22
2022-08-22T14:02:51.366Z,2.53
2022-08-22T14:05:30.964Z,2.47
2022-08-22T14:08:18.438Z,2.10
2022-08-22T14:11:02.404Z,2.70
2022-08-22T14:13:59.185Z,2.35
2022-08-22T14:16:29.537Z,2.03
2022-08-22T14:19:00.561Z,2.20
2022-08-22T14:21:40.559Z,2.28
2022-08-22T14:24:12.843Z,2.30
2022-08-22T14:26:54.638Z,2.40
2022-08-22T14:29:31.848Z,2.28
2022-08-22T14:32:29.700Z,2.10
2022-08-22T14:35:40.666Z,2.70
2022-08-22T14:38:35.128Z,2.17
2022-08-22T14:41:16.926Z,2.67
2022-08-22T14:44:00.644Z,2.25
2022-08-22T14:46:44.452Z,2.23
2022-08-22T14:49:29.083Z,2.42
2022-08-22T14:52:34.358Z,2.30
2022-08-22T14:55:23.898Z,2.10
2022-08-22T14:58:05.923Z,2.60
2022-08-22T15:00:37.640Z,2.33
2022-08-22T15:03:12.453Z,2.42
2022-08-22T15:05:47.877Z,2.45
2022-08-22T15:08:28.328Z,2.10
2022-08-22T15:11:16.199Z,2.45
2022-08-22T15:13:51.612Z,2.20
2022-08-22T15:16:23.479Z,2.40
2022-08-22T15:18:52.024Z,2.30
2022-08-22T15:21:29.392Z,2.40
2022-08-22T15:24:06.278Z,2.70
2022-08-22T15:26:38.484Z,2.30
2022-08-22T15:29:22.102Z,2.25
2022-08-22T15:31:52.347Z,2.33
2022-08-22T15:34:31.212Z,2.30
2022-08-22T15:37:25.675Z,2.80
2022-08-22T15:40:11.953Z,2.17
2022-08-22T15:42:44.212Z,2.40
2022-08-22T15:45:34.041Z,3.00
2022-08-22T15:48:04.441Z,2.30
2022-08-22T15:50:38.673Z,2.55
2022-08-22T15:53:06.870Z,2.47
2022-08-22T15:55:35.272Z,2.58
2022-08-22T15:58:20.051Z,2.72
2022-08-22T16:01:20.037Z,2.45
2022-08-22T16:04:04.531Z,2.80
2022-08-22T16:07:02.578Z,2.20
2022-08-22T16:09:40.727Z,2.60
2022-08-22T16:12:31.657Z,2.80
2022-08-22T16:15:05.624Z,3.00
2022-08-22T16:17:42.690Z,2.83
2022-08-22T16:20:19.800Z,2.80
2022-08-22T16:22:59.173Z,2.20
2022-08-22T16:25:51.571Z,2.53
2022-08-22T16:28:57.297Z,2.53
2022-08-22T16:31:46.323Z,2.85
2022-08-22T16:34:15.647Z,2.47
2022-08-22T16:36:50.830Z,2.67
2022-08-22T16:39:20.213Z,2.42
2022-08-22T16:41:51.751Z,2.35
2022-08-22T16:44:30.382Z,2.33
2022-08-22T16:47:15.138Z,2.50
2022-08-22T16:49:50.980Z,2.10
2022-08-22T16:52:20.995Z,2.22
2022-08-22T16:54:48.788Z,2.22
2022-08-22T16:57:54.449Z,2.65
2022-08-22T17:00:49.727Z,2.17
2022-08-22T17:03:37.368Z,2.45
2022-08-22T17:06:34.987Z,2.65
2022-08-22T17:09:21.870Z,2.33
2022-08-22T17:12:24.239Z,2.20
2022-08-22T17:15:28.756Z,2.60
2022-08-22T17:18:32.640Z,2.45
2022-08-22T17:21:11.529Z,2.25
2022-08-22T17:24:09.793Z,2.58
2022-08-22T17:27:02.179Z,2.33
2022-08-22T17:29:43.025Z,2.10
2022-08-22T17:32:26.307Z,2.03
2022-08-22T17:35:20.218Z,2.67
2022-08-22T17:38:13.174Z,2.40
2022-08-22T17:41:11.799Z,2.72
2022-08-22T17:43:59.501Z,2.37
2022-08-22T17:46:33.689Z,2.40
2022-08-22T17:49:15.713Z,2.55
2022-08-22T17:51:51.398Z,2.10
2022-08-22T17:54:21.967Z,2.10
2022-08-22T17:57:02.003Z,2.10
2022-08-22T17:59:33.422Z,2.15
2022-08-22T18:02:10.026Z,2.30
2022-08-22T18:05:10.355Z,2.70
2022-08-22T18:07:53.918Z,2.25
2022-08-22T18:10:45.591Z,2.27
2022-08-22T18:13:33.580Z,2.13
2022-08-22T18:16:29.631Z,1.95
2022-08-22T18:19:06.593Z,2.10
2022-08-22T18:21:44.195Z,2.20
2022-08-22T18:24:10.913Z,2.63
2022-08-22T18:27:03.050Z,2.20
2022-08-22T18:29:42.637Z,2.70
2022-08-22T18:32:25.514Z,2.67
2022-08-22T18:35:03.077Z,2.63
2022-08-22T18:37:39.206Z,2.23
2022-08-22T18:40:30.991Z,2.42
2022-08-22T18:43:31.062Z,2.35
2022-08-22T18:46:03.626Z,2.30
2022-08-22T18:48:49.530Z,2.65
2022-08-22T18:51:31.624Z,2.90
2022-08-22T18:54:30.491Z,2.50
2022-08-22T18:57:08.701Z,2.40
2022-08-22T18:59:58.120Z,2.30
2022-08-22T19:02:56.170Z,2.50
2022-08-22T19:05:44.299Z,2.80
2022-08-22T19:08:29.707Z,2.05
2022-08-22T19:11:42.095Z,2.35
2022-08-22T19:14:29.422Z,2.42
2022-08-22T19:17:17.992Z,2.40
2022-08-22T19:20:17.824Z,2.43
2022-08-22T19:22:45.199Z,2.67
2022-08-22T19:25:26.340Z,2.80
2022-08-22T19:28:11.680Z,2.47
2022-08-22T19:30:49.475Z,3.10
2022-08-22T19:33:34.554Z,2.50
2022-08-22T19:36:09.708Z,2.30
2022-08-22T19:38:54.386Z,2.40
2022-08-22T19:41:58.002Z,2.50
2022-08-22T19:44:27.494Z,2.40
2022-08-22T19:47:07.121Z,2.23
2022-08-22T19:49:38.858Z,2.80
2022-08-22T19:52:28.620Z,2.25
2022-08-22T19:55:33.430Z,2.53
2022-08-22T19:58:24.159Z,2.30
2022-08-22T20:00:59.271Z,2.40
2022-08-22T20:03:50.493Z,2.38
2022-08-22T20:06:45.288Z,2.60
2022-08-22T20:09:11.900Z,2.50
2022-08-22T20:11:56.703Z,2.38
2022-08-22T20:14:31.073Z,3.10
2022-08-22T20:17:07.052Z,2.97
2022-08-22T20:20:16.466Z,2.70
2022-08-22T20:22:38.873Z,2.67
2022-08-22T20:25:41.788Z,2.95
2022-08-22T20:28:44.368Z,2.73
2022-08-22T20:31:20.305Z,3.20
2022-08-22T20:33:51.353Z,3.10
2022-08-22T20:36:28.082Z,2.75
2022-08-22T20:39:00.246Z,2.80
2022-08-22T20:41:56.295Z,3.37
2022-08-22T20:44:34.943Z,3.28
2022-08-22T20:47:11.099Z,2.63
2022-08-22T20:49:42.101Z,3.17
2022-08-22T20:52:27.103Z,2.70
2022-08-22T20:55:01.579Z,3.17
2022-08-22T20:57:29.669Z,3.08
2022-08-22T21:00:03.960Z,3.28
2022-08-22T21:02:39.408Z,2.70
2022-08-22T21:05:26.443Z,3.28
2022-08-22T21:08:02.866Z,3.00
2022-08-22T21:10:49.709Z,3.30
2022-08-22T21:13:24.267Z,2.95
2022-08-22T21:15:55.508Z,3.28
2022-08-22T21:18:27.516Z,3.58
2022-08-22T21:20:55.013Z,3.23
2022-08-22T21:23:21.901Z,3.10
2022-08-22T21:25:58.896Z,3.45
2022-08-22T21:28:28.795Z,3.55
2022-08-22T21:30:56.285Z,3.10
2022-08-22T21:33:25.243Z,3.50
2022-08-22T21:35:58.163Z,3.40
2022-08-22T21:38:25.677Z,3.67
2022-08-22T21:40:52.758Z,3.65
2022-08-22T21:43:39.175Z,3.08
2022-08-22T21:46:07.274Z,2.87
2022-08-22T21:48:36.811Z,3.22
2022-08-22T21:51:42.198Z,3.10
2022-08-22T21:54:31.445Z,2.92
2022-08-22T21:57:14.209Z,3.15
2022-08-22T21:59:58.684Z,2.93
2022-08-22T22:02:37.350Z,2.90
2022-08-22T22:05:07.368Z,3.10
2022-08-22T22:07:46.051Z,3.35
2022-08-22T22:10:16.275Z,3.10
2022-08-22T22:12:44.707Z,3.20
2022-08-22T22:15:13.966Z,3.38
2022-08-22T22:17:40.774Z,3.25
2022-08-22T22:20:08.082Z,3.25
2022-08-22T22:22:36.931Z,3.65
2022-08-22T22:25:40.415Z,3.70
2022-08-22T22:28:04.135Z,3.95
2022-08-22T22:30:30.864Z,3.60
2022-08-22T22:32:57.724Z,3.90
2022-08-22T22:35:24.708Z,3.70
2022-08-22T22:37:51.506Z,3.70
2022-08-22T22:40:18.282Z,3.97
2022-08-22T22:42:45.083Z,3.13
2022-08-22T22:45:11.875Z,3.40
2022-08-22T22:47:38.379Z,3.78
2022-08-22T22:50:07.168Z,3.50
2022-08-22T22:52:34.067Z,3.92
2022-08-22T22:55:08.363Z,3.53
2022-08-22T22:57:41.452Z,3.00
2022-08-22T23:00:11.667Z,3.15
2022-08-22T23:02:39.094Z,3.57
2022-08-22T23:05:07.117Z,3.25
2022-08-22T23:07:34.089Z,3.22
2022-08-22T23:10:01.346Z,3.38
2022-08-22T23:12:28.306Z,3.33
2022-08-22T23:14:54.960Z,3.20
2022-08-22T23:17:21.772Z,3.17
2022-08-22T23:19:49.928Z,3.30
2022-08-22T23:22:17.014Z,3.30
2022-08-22T23:24:43.718Z,3.33
2022-08-22T23:27:11.059Z,3.40
2022-08-22T23:29:41.685Z,3.45
2022-08-22T23:32:10.484Z,3.50
2022-08-22T23:34:43.936Z,3.58
2022-08-22T23:37:10.913Z,3.40
2022-08-22T23:39:40.835Z,3.87
2022-08-22T23:42:08.647Z,3.75
2022-08-22T23:44:37.836Z,3.70
2022-08-22T23:47:06.064Z,4.05
2022-08-22T23:49:33.751Z,4.68
2022-08-22T23:52:00.705Z,3.80
2022-08-22T23:54:27.575Z,4.85
2022-08-22T23:57:00.641Z,4.10
2022-08-22T23:59:33.948Z,4.70
